Time;durP1;ratioP1;P1;durP2;ratioP2;P2;SDS_P1;SDS_P2;PMS_P1;PMS_P2;Temp;Humidity;BMP_temperature;BMP_pressure;BME280_temperature;BME280_humidity;BME280_pressure;Samples;Min_cycle;Max_cycle;Signal;HPM_P1;HPM_P2
2023/01/14 00:01:05;;;;;;;9.98;1.80;;;10.20;77.70;;;;;;5114376;28;20020;-70
2023/01/14 00:03:32;;;;;;;11.35;2.25;;;10.20;77.70;;;;;;5111502;28;20424;-70
2023/01/14 00:05:59;;;;;;;11.85;2.42;;;10.20;77.70;;;;;;5113531;28;20039;-70
2023/01/14 00:08:26;;;;;;;9.18;2.42;;;10.20;77.70;;;;;;5093719;28;20549;-70
2023/01/14 00:10:52;;;;;;;12.55;2.85;;;10.20;77.70;;;;;;5111850;28;20043;-70
2023/01/14 00:13:18;;;;;;;10.93;2.67;;;10.20;77.60;;;;;;5111850;27;20030;-70
2023/01/14 00:15:56;;;;;;;10.32;2.80;;;10.20;77.50;;;;;;5114196;28;20111;-69
2023/01/14 00:18:23;;;;;;;15.38;3.28;;;10.20;77.40;;;;;;5109985;28;20019;-70
2023/01/14 00:21:04;;;;;;;8.27;2.60;;;10.20;77.50;;;;;;5111852;28;20024;-70
2023/01/14 00:23:32;;;;;;;15.00;2.95;;;10.20;77.40;;;;;;5110358;28;20023;-70
2023/01/14 00:26:16;;;;;;;8.95;2.70;;;10.20;77.40;;;;;;5111315;28;20541;-70
2023/01/14 00:28:46;;;;;;;11.43;2.33;;;10.20;77.30;;;;;;5125071;27;20055;-70
2023/01/14 00:31:25;;;;;;;10.25;2.42;;;10.20;77.50;;;;;;5095872;28;20103;-70
2023/01/14 00:33:52;;;;;;;14.35;2.30;;;10.10;77.50;;;;;;5111632;28;20023;-70
2023/01/14 00:36:20;;;;;;;10.40;2.20;;;10.10;77.50;;;;;;5111548;28;20019;-70
2023/01/14 00:38:46;;;;;;;11.02;2.88;;;10.10;77.60;;;;;;5092692;28;20023;-70
2023/01/14 00:41:17;;;;;;;10.32;2.50;;;10.10;77.60;;;;;;5111320;28;20038;-70
2023/01/14 00:43:49;;;;;;;9.90;2.20;;;10.10;77.50;;;;;;5111433;28;20068;-70
2023/01/14 00:46:19;;;;;;;;;;;10.10;77.50;;;;;;5108903;28;20452;-70
2023/01/14 00:48:46;;;;;;;7.53;2.03;;;10.10;77.60;;;;;;5111754;28;19911;-70
2023/01/14 00:51:15;;;;;;;10.70;2.58;;;10.00;77.60;;;;;;5113475;28;20023;-70
2023/01/14 00:53:42;;;;;;;10.15;2.38;;;10.00;77.60;;;;;;5112196;28;20356;-69
2023/01/14 00:56:09;;;;;;;11.02;2.85;;;10.00;77.60;;;;;;5109835;28;20020;-70
2023/01/14 00:58:35;;;;;;;14.30;2.63;;;10.00;77.60;;;;;;5109072;28;20051;-70
2023/01/14 01:01:01;;;;;;;15.52;3.33;;;10.00;77.70;;;;;;5089098;28;20024;-69
2023/01/14 01:03:27;;;;;;;14.48;2.70;;;10.00;77.70;;;;;;5107994;28;20034;-70
2023/01/14 01:05:53;;;;;;;12.18;2.65;;;10.00;77.60;;;;;;5102512;28;20031;-70
2023/01/14 01:08:21;;;;;;;11.13;3.03;;;10.00;77.60;;;;;;5110376;28;20024;-69
2023/01/14 01:10:49;;;;;;;10.98;2.20;;;10.00;77.70;;;;;;5108097;28;20024;-70
2023/01/14 01:13:16;;;;;;;13.30;2.65;;;10.00;78.40;;;;;;5103781;28;20470;-70
2023/01/14 01:15:43;;;;;;;10.48;2.97;;;10.00;77.80;;;;;;5108134;28;20047;-70
2023/01/14 01:18:11;;;;;;;12.95;2.55;;;10.00;77.80;;;;;;5113207;28;20019;-70
2023/01/14 01:20:37;;;;;;;11.32;3.20;;;10.00;77.80;;;;;;5098637;28;20088;-70
2023/01/14 01:23:04;;;;;;;11.57;3.13;;;10.00;77.80;;;;;;5113084;28;20031;-70
2023/01/14 01:25:30;;;;;;;14.38;2.65;;;10.00;77.80;;;;;;5109669;28;20038;-70
2023/01/14 01:27:57;;;;;;;12.20;3.10;;;10.00;77.70;;;;;;5110687;28;20047;-70
2023/01/14 01:30:24;;;;;;;8.07;2.40;;;10.00;77.70;;;;;;5112854;28;20389;-70
2023/01/14 01:32:51;;;;;;;13.63;2.78;;;10.00;77.70;;;;;;5113846;28;20032;-70
2023/01/14 01:35:17;;;;;;;15.90;3.22;;;10.00;77.70;;;;;;5111105;28;20027;-70
2023/01/14 01:37:43;;;;;;;9.35;2.60;;;10.00;77.60;;;;;;5111155;28;20034;-70
2023/01/14 01:40:10;;;;;;;11.00;2.67;;;10.00;77.60;;;;;;5111918;28;20024;-70
2023/01/14 01:42:54;;;;;;;10.38;2.58;;;10.00;77.60;;;;;;5114007;28;20019;-70
2023/01/14 01:45:39;;;;;;;13.07;2.72;;;10.00;77.60;;;;;;5106419;28;20027;-70
2023/01/14 01:48:31;;;;;;;15.70;2.90;;;10.00;77.40;;;;;;5111755;28;20072;-70
2023/01/14 01:51:04;;;;;;;8.45;2.60;;;10.00;77.40;;;;;;5107587;28;20036;-70
2023/01/14 01:53:35;;;;;;;11.23;2.55;;;9.90;77.40;;;;;;5113796;28;20051;-70
2023/01/14 01:56:04;;;;;;;9.73;2.70;;;9.90;77.40;;;;;;5107489;28;20054;-70
2023/01/14 01:58:31;;;;;;;8.73;2.63;;;9.80;77.30;;;;;;5125905;28;20104;-70
2023/01/14 02:00:59;;;;;;;13.48;2.92;;;9.80;77.30;;;;;;5088529;28;20023;-70
2023/01/14 02:03:41;;;;;;;11.98;2.58;;;9.90;77.30;;;;;;5112669;28;20034;-70
2023/01/14 02:06:08;;;;;;;11.43;2.92;;;9.90;77.80;;;;;;5108903;28;20023;-70
2023/01/14 02:08:37;;;;;;;10.75;2.38;;;9.80;77.10;;;;;;5110012;28;20020;-70
2023/01/14 02:11:40;;;;;;;11.30;2.70;;;9.80;77.10;;;;;;5124696;28;20027;-70
2023/01/14 02:14:31;;;;;;;19.88;3.47;;;9.80;77.00;;;;;;5116773;28;20035;-70
2023/01/14 02:17:12;;;;;;;12.82;2.85;;;9.80;77.00;;;;;;5110447;28;20024;-70
2023/01/14 02:19:51;;;;;;;19.53;2.60;;;9.70;77.00;;;;;;5113334;28;20032;-70
2023/01/14 02:22:33;;;;;;;10.37;2.47;;;9.80;76.90;;;;;;5126718;27;20329;-70
2023/01/14 02:25:39;;;;;;;17.63;3.42;;;9.70;77.00;;;;;;5095672;28;20069;-70
2023/01/14 02:28:14;;;;;;;11.38;3.17;;;9.70;76.90;;;;;;5126427;27;20048;-70
2023/01/14 02:30:47;;;;;;;11.50;2.63;;;9.70;76.90;;;;;;5134237;27;20034;-70
2023/01/14 02:33:35;;;;;;;12.00;3.03;;;9.70;76.80;;;;;;5115929;28;20111;-70
2023/01/14 02:36:23;;;;;;;13.90;2.75;;;9.70;76.70;;;;;;5113664;28;20564;-70
2023/01/14 02:39:03;;;;;;;11.02;2.78;;;9.60;76.80;;;;;;5111403;28;20104;-70
2023/01/14 02:44:39;;;;;;;14.82;2.83;;;9.60;76.60;;;;;;5115853;28;20032;-70
2023/01/14 02:47:13;;;;;;;14.25;3.05;;;9.60;76.60;;;;;;5114249;28;20405;-70
2023/01/14 02:49:43;;;;;;;15.95;3.55;;;9.60;76.60;;;;;;5087622;28;20038;-70
2023/01/14 02:52:13;;;;;;;14.63;3.28;;;9.50;76.50;;;;;;5102437;28;20020;-70
2023/01/14 02:54:39;;;;;;;15.35;3.97;;;9.50;76.60;;;;;;5098912;28;20338;-70
2023/01/14 02:57:46;;;;;;;15.38;2.95;;;9.50;77.20;;;;;;5112825;28;20031;-70
2023/01/14 03:00:15;;;;;;;17.00;3.80;;;9.50;76.50;;;;;;5105871;27;20056;-70
2023/01/14 03:02:55;;;;;;;8.80;2.50;;;9.50;76.60;;;;;;5116754;27;20024;-70
2023/01/14 03:05:46;;;;;;;10.77;3.55;;;9.50;76.70;;;;;;5115589;28;20020;-70
2023/01/14 03:08:39;;;;;;;9.88;3.25;;;9.40;76.60;;;;;;5111171;28;20376;-70
2023/01/14 03:11:07;;;;;;;13.63;3.72;;;9.40;76.60;;;;;;5110798;28;20071;-70
2023/01/14 03:13:41;;;;;;;11.38;3.90;;;9.40;76.70;;;;;;5113255;28;20065;-70
2023/01/14 03:16:26;;;;;;;15.60;3.80;;;9.40;76.70;;;;;;5114665;28;20035;-70
2023/01/14 03:19:09;;;;;;;21.50;4.35;;;9.40;76.70;;;;;;5114997;28;20340;-70
2023/01/14 03:21:40;;;;;;;13.73;3.70;;;9.40;76.80;;;;;;5114593;28;20440;-70
2023/01/14 03:24:31;;;;;;;15.15;3.67;;;9.30;76.70;;;;;;5114184;28;20024;-70
2023/01/14 03:27:04;;;;;;;15.15;3.50;;;9.40;76.70;;;;;;5113639;28;20082;-70
2023/01/14 03:29:40;;;;;;;22.13;3.88;;;9.30;76.70;;;;;;5114913;28;20118;-70
2023/01/14 03:32:17;;;;;;;15.90;3.95;;;9.30;76.60;;;;;;5111783;28;20562;-70
2023/01/14 03:34:49;;;;;;;17.63;4.00;;;9.30;76.70;;;;;;5111668;28;20050;-70
2023/01/14 03:37:17;;;;;;;20.75;4.05;;;9.20;76.70;;;;;;5114668;28;20046;-70
2023/01/14 03:39:46;;;;;;;23.13;3.88;;;9.30;76.70;;;;;;5113269;28;20027;-70
2023/01/14 03:42:20;;;;;;;15.27;4.18;;;9.30;76.70;;;;;;5114948;28;20035;-70
2023/01/14 03:45:06;;;;;;;16.48;3.85;;;9.20;76.70;;;;;;5113648;28;20031;-70
2023/01/14 03:47:33;;;;;;;12.77;3.10;;;9.20;76.70;;;;;;5096742;28;20478;-70
2023/01/14 03:50:03;;;;;;;13.10;3.63;;;9.20;76.70;;;;;;5114159;28;20332;-70
2023/01/14 03:53:13;;;;;;;18.50;4.20;;;9.20;76.80;;;;;;5111843;28;20126;-70
2023/01/14 03:56:02;;;;;;;14.60;3.08;;;9.20;76.90;;;;;;5092126;28;20499;-70
2023/01/14 03:58:50;;;;;;;13.25;3.42;;;9.10;76.90;;;;;;5118253;27;20043;-70
2023/01/14 04:01:27;;;;;;;17.20;3.35;;;9.10;76.90;;;;;;5118357;27;20024;-70
2023/01/14 04:03:54;;;;;;;12.13;3.00;;;9.10;77.00;;;;;;5111479;28;20051;-70
2023/01/14 04:06:19;;;;;;;15.98;3.55;;;9.10;77.10;;;;;;5110781;28;20118;-70
2023/01/14 04:08:46;;;;;;;17.42;3.53;;;9.00;77.10;;;;;;5108143;28;20059;-70
2023/01/14 04:11:11;;;;;;;14.45;3.38;;;9.00;77.10;;;;;;5114405;28;20044;-70
2023/01/14 04:16:21;;;;;;;18.52;3.72;;;9.00;77.20;;;;;;5114156;28;20342;-70
2023/01/14 04:18:47;;;;;;;16.70;3.58;;;9.00;77.30;;;;;;5112828;28;20022;-70
2023/01/14 04:21:14;;;;;;;17.23;4.05;;;9.00;77.30;;;;;;5114786;28;20394;-70
2023/01/14 04:23:40;;;;;;;18.30;3.45;;;9.10;77.40;;;;;;5114296;28;20339;-70
2023/01/14 04:26:05;;;;;;;24.85;4.40;;;9.00;77.30;;;;;;5113004;28;20038;-70
2023/01/14 04:28:31;;;;;;;20.10;3.85;;;9.10;77.40;;;;;;5128105;27;20130;-70
2023/01/14 04:30:57;;;;;;;15.57;3.60;;;9.10;77.40;;;;;;5112633;28;20118;-70
2023/01/14 04:33:23;;;;;;;19.50;3.65;;;9.10;77.40;;;;;;5089020;28;20024;-70
2023/01/14 04:35:49;;;;;;;14.32;3.38;;;9.10;77.90;;;;;;5103208;28;20039;-70
2023/01/14 04:38:16;;;;;;;16.40;4.13;;;9.10;77.40;;;;;;5104862;28;20031;-70
2023/01/14 04:40:42;;;;;;;17.15;4.03;;;9.10;77.40;;;;;;5110894;28;20062;-70
2023/01/14 04:43:08;;;;;;;11.32;3.53;;;9.10;77.40;;;;;;5112382;28;20524;-70
2023/01/14 04:45:36;;;;;;;13.07;3.75;;;9.10;77.50;;;;;;5111812;28;20032;-70
2023/01/14 04:48:02;;;;;;;16.35;3.85;;;9.10;77.50;;;;;;5115312;28;20020;-69
2023/01/14 04:50:31;;;;;;;18.40;4.30;;;9.10;77.60;;;;;;5111184;28;20028;-69
2023/01/14 04:53:13;;;;;;;18.42;4.15;;;9.10;77.70;;;;;;5113540;28;20039;-70
2023/01/14 04:55:40;;;;;;;13.52;3.25;;;9.10;77.60;;;;;;5110496;28;20023;-70
2023/01/14 04:58:08;;;;;;;16.73;4.55;;;9.10;77.60;;;;;;5112197;28;20069;-69
2023/01/14 05:00:34;;;;;;;16.40;3.25;;;9.10;77.70;;;;;;5110021;27;20024;-70
2023/01/14 05:03:05;;;;;;;13.60;3.55;;;9.10;77.70;;;;;;5092179;28;20069;-69
2023/01/14 05:05:31;;;;;;;17.65;4.45;;;9.10;77.80;;;;;;5110925;28;20043;-69
2023/01/14 05:07:58;;;;;;;18.83;4.10;;;9.10;77.90;;;;;;5104981;28;20030;-70
2023/01/14 05:10:24;;;;;;;10.70;3.35;;;9.10;77.90;;;;;;5111414;28;20024;-70
2023/01/14 05:12:58;;;;;;;16.95;3.85;;;9.10;77.90;;;;;;5100438;28;20085;-70
2023/01/14 05:15:32;;;;;;;18.30;3.13;;;9.10;77.90;;;;;;5113509;28;20062;-69
2023/01/14 05:17:58;;;;;;;14.13;3.05;;;9.10;77.90;;;;;;5106873;28;20055;-70
2023/01/14 05:20:24;;;;;;;17.92;3.78;;;9.10;77.90;;;;;;5110124;28;20050;-70
2023/01/14 05:22:51;;;;;;;15.25;3.40;;;9.10;78.00;;;;;;5106635;28;20027;-70
2023/01/14 05:25:17;;;;;;;18.55;4.35;;;9.10;77.90;;;;;;5090983;28;20047;-70
2023/01/14 05:27:43;;;;;;;18.52;3.60;;;9.20;78.00;;;;;;5097851;27;20334;-70
2023/01/14 05:30:09;;;;;;;16.40;3.50;;;9.10;78.00;;;;;;5092207;28;20065;-70
2023/01/14 05:32:35;;;;;;;16.50;3.88;;;9.20;78.10;;;;;;5105987;27;20448;-70
2023/01/14 05:35:01;;;;;;;12.85;3.28;;;9.10;78.00;;;;;;5092969;28;20035;-70
2023/01/14 05:37:27;;;;;;;13.02;3.65;;;9.10;78.10;;;;;;5102340;28;20019;-70
2023/01/14 05:39:52;;;;;;;14.18;3.13;;;9.10;78.10;;;;;;5094019;28;20326;-70
2023/01/14 05:47:47;;;;;;;17.35;3.85;;;9.20;78.10;;;;;;5112356;28;20070;-69
2023/01/14 05:50:13;;;;;;;19.40;4.03;;;9.20;78.10;;;;;;5115493;28;20028;-69
2023/01/14 05:52:39;;;;;;;16.98;3.38;;;9.10;78.00;;;;;;5120492;28;20027;-69
2023/01/14 05:55:05;;;;;;;12.73;3.03;;;9.10;78.10;;;;;;5126071;27;20027;-69
2023/01/14 05:57:31;;;;;;;10.43;2.88;;;9.10;78.10;;;;;;5114058;27;20016;-71
2023/01/14 05:59:57;;;;;;;13.68;3.55;;;9.10;78.20;;;;;;5098011;28;20464;-69
2023/01/14 06:07:55;;;;;;;15.27;3.15;;;9.10;78.20;;;;;;5109878;28;20459;-69
2023/01/14 06:10:24;;;;;;;12.25;2.50;;;9.10;78.20;;;;;;5103363;28;20155;-69
2023/01/14 06:12:57;;;;;;;12.75;3.35;;;9.10;78.20;;;;;;5105068;28;20027;-69
2023/01/14 06:15:36;;;;;;;14.15;3.00;;;9.10;78.30;;;;;;5111898;28;20015;-70
2023/01/14 06:18:13;;;;;;;14.32;3.30;;;9.10;78.30;;;;;;5117678;28;20032;-69
2023/01/14 06:20:43;;;;;;;11.05;3.30;;;9.10;78.30;;;;;;5111803;28;20019;-70
2023/01/14 06:23:10;;;;;;;14.25;3.40;;;9.10;78.20;;;;;;5116390;28;20360;-68
2023/01/14 06:25:35;;;;;;;13.82;3.20;;;9.10;78.20;;;;;;5116508;28;20114;-68
2023/01/14 06:28:01;;;;;;;12.60;3.00;;;9.10;78.20;;;;;;5133713;27;20582;-68
2023/01/14 06:30:28;;;;;;;12.50;3.60;;;9.10;78.20;;;;;;5115863;28;20058;-68
2023/01/14 06:32:55;;;;;;;16.85;3.90;;;9.10;78.20;;;;;;5116692;28;20023;-68
2023/01/14 06:35:22;;;;;;;12.20;2.90;;;9.10;78.10;;;;;;5117247;28;20028;-68
2023/01/14 06:37:48;;;;;;;10.43;2.05;;;9.10;78.80;;;;;;5116594;28;20099;-68
2023/01/14 06:40:14;;;;;;;12.00;2.88;;;9.10;78.10;;;;;;5112097;28;20508;-68
2023/01/14 06:42:41;;;;;;;13.25;2.83;;;9.10;78.10;;;;;;5104197;28;20032;-68
2023/01/14 06:45:11;;;;;;;15.38;2.65;;;9.10;78.10;;;;;;5099512;28;20034;-68
2023/01/14 06:47:37;;;;;;;11.40;2.35;;;9.10;78.00;;;;;;5117698;28;20036;-68
2023/01/14 06:50:05;;;;;;;14.48;2.85;;;9.10;78.00;;;;;;5081153;28;20023;-69
2023/01/14 06:52:30;;;;;;;13.80;2.80;;;9.20;78.00;;;;;;5112156;28;20084;-68
2023/01/14 06:54:58;;;;;;;15.65;3.22;;;9.20;78.00;;;;;;5116234;28;20417;-68
2023/01/14 06:57:25;;;;;;;15.75;2.92;;;9.20;77.90;;;;;;5116432;28;20024;-68
2023/01/14 06:59:52;;;;;;;14.00;2.97;;;9.20;77.80;;;;;;5117682;28;20027;-68
2023/01/14 07:02:17;;;;;;;13.90;2.97;;;9.20;77.90;;;;;;5115305;28;20076;-69
2023/01/14 07:04:43;;;;;;;14.35;3.47;;;9.20;77.90;;;;;;5113454;28;20031;-71
2023/01/14 07:07:10;;;;;;;16.40;2.60;;;9.20;78.00;;;;;;5113368;28;20108;-71
2023/01/14 07:09:36;;;;;;;12.07;2.65;;;9.20;77.90;;;;;;5116124;28;20023;-71
2023/01/14 07:12:02;;;;;;;14.05;2.92;;;9.30;77.90;;;;;;5105888;28;20118;-72
2023/01/14 07:14:28;;;;;;;20.35;3.17;;;9.30;77.90;;;;;;5105409;28;20039;-72
2023/01/14 07:16:54;;;;;;;12.75;3.53;;;9.30;77.80;;;;;;5114990;28;20023;-72
2023/01/14 07:19:20;;;;;;;12.48;3.22;;;9.40;77.90;;;;;;5115997;27;20096;-72
2023/01/14 07:21:46;;;;;;;14.05;2.88;;;9.30;77.80;;;;;;5115361;28;20026;-71
2023/01/14 07:24:12;;;;;;;15.73;3.20;;;9.40;77.90;;;;;;5109290;28;20016;-72
2023/01/14 07:26:38;;;;;;;16.38;3.85;;;9.40;78.10;;;;;;5113939;28;20372;-71
2023/01/14 07:29:04;;;;;;;9.40;2.63;;;9.40;78.10;;;;;;5115124;28;20103;-72
2023/01/14 07:31:30;;;;;;;13.38;3.13;;;9.40;78.20;;;;;;5115126;28;20023;-69
2023/01/14 07:33:56;;;;;;;17.95;3.05;;;9.40;78.20;;;;;;5113713;28;20027;-68
2023/01/14 07:36:22;;;;;;;12.55;2.67;;;9.30;78.30;;;;;;5115297;28;20024;-68
2023/01/14 07:38:47;;;;;;;13.25;3.03;;;9.30;78.40;;;;;;5115124;28;20027;-68
2023/01/14 07:41:18;;;;;;;13.80;2.72;;;9.30;78.60;;;;;;5116538;28;20016;-68
2023/01/14 07:43:50;;;;;;;14.20;3.05;;;9.20;78.60;;;;;;5116036;28;20027;-68
2023/01/14 07:46:16;;;;;;;14.70;3.22;;;9.20;78.80;;;;;;5115551;28;20088;-68
2023/01/14 07:48:44;;;;;;;11.15;2.58;;;9.20;78.90;;;;;;5116579;28;20024;-68
2023/01/14 07:51:11;;;;;;;13.10;3.50;;;9.20;79.00;;;;;;5116708;28;20032;-68
2023/01/14 07:53:37;;;;;;;10.35;2.15;;;9.20;79.10;;;;;;5110936;28;20024;-68
2023/01/14 07:56:05;;;;;;;10.02;2.38;;;9.10;79.40;;;;;;5107640;28;20428;-69
2023/01/14 07:58:32;;;;;;;9.90;2.58;;;9.10;79.50;;;;;;5109051;28;20477;-69
2023/01/14 08:00:57;;;;;;;11.93;2.80;;;9.10;79.50;;;;;;5112110;27;20019;-68
2023/01/14 08:03:24;;;;;;;12.02;2.58;;;9.20;79.60;;;;;;5109180;28;20348;-69
2023/01/14 08:05:51;;;;;;;10.93;2.53;;;9.10;79.60;;;;;;5099280;28;20020;-69
2023/01/14 08:08:17;;;;;;;11.65;2.53;;;9.10;80.40;;;;;;5108835;28;20035;-69
2023/01/14 08:10:43;;;;;;;11.05;2.75;;;9.10;79.80;;;;;;5113749;28;20062;-69
2023/01/14 08:13:13;;;;;;;13.35;3.38;;;9.10;79.90;;;;;;5105013;28;20442;-69
2023/01/14 08:15:39;;;;;;;11.32;2.45;;;9.10;80.00;;;;;;5100809;28;20032;-68
2023/01/14 08:18:05;;;;;;;8.60;2.20;;;9.10;80.00;;;;;;5094942;28;20020;-69
2023/01/14 08:20:30;;;;;;;9.95;3.30;;;9.10;80.20;;;;;;5095403;28;20456;-69
2023/01/14 08:22:59;;;;;;;11.95;2.92;;;9.20;80.30;;;;;;5106005;28;20450;-69
2023/01/14 08:25:26;;;;;;;11.48;2.70;;;9.20;80.40;;;;;;5117479;27;20031;-69
2023/01/14 08:27:51;;;;;;;7.13;2.67;;;9.10;80.50;;;;;;5115474;27;20051;-69
2023/01/14 08:30:18;;;;;;;9.10;2.70;;;9.10;80.60;;;;;;5115458;28;20036;-69
2023/01/14 08:32:44;;;;;;;7.20;1.85;;;9.20;80.70;;;;;;5114031;28;20024;-69
2023/01/14 08:35:09;;;;;;;6.72;1.80;;;9.20;80.70;;;;;;5111473;28;20426;-64
2023/01/14 08:37:36;;;;;;;9.18;2.15;;;9.20;80.90;;;;;;5104593;28;20110;-66
2023/01/14 08:40:02;;;;;;;8.43;2.50;;;9.20;80.90;;;;;;5112150;27;20020;-66
2023/01/14 08:42:28;;;;;;;6.05;2.60;;;9.20;81.00;;;;;;5110590;28;20034;-65
2023/01/14 08:44:54;;;;;;;9.50;2.33;;;9.20;81.10;;;;;;5107913;27;20067;-70
2023/01/14 08:47:20;;;;;;;5.43;1.98;;;9.20;81.10;;;;;;5090853;28;20055;-66
2023/01/14 08:49:45;;;;;;;7.53;1.90;;;9.20;81.20;;;;;;5104158;28;20038;-66
2023/01/14 08:52:11;;;;;;;7.28;1.98;;;9.20;81.30;;;;;;5106830;28;20032;-67
2023/01/14 08:54:37;;;;;;;6.97;1.50;;;9.20;81.40;;;;;;5110386;28;20034;-68
2023/01/14 08:57:03;;;;;;;8.13;1.85;;;9.30;81.50;;;;;;5111671;27;20110;-64
2023/01/14 08:59:29;;;;;;;8.18;2.00;;;9.30;81.50;;;;;;5112824;28;20119;-65
2023/01/14 09:01:54;;;;;;;5.07;1.65;;;9.30;81.50;;;;;;5108623;28;20100;-65
2023/01/14 09:04:22;;;;;;;5.80;1.48;;;9.30;81.60;;;;;;5108377;28;20027;-65
2023/01/14 09:17:45;;;;;;;3.72;1.77;;;9.40;81.90;;;;;;5116757;27;20475;-63
2023/01/14 09:20:15;;;;;;;6.90;1.80;;;9.40;81.90;;;;;;5111558;28;20016;-65
2023/01/14 09:22:41;;;;;;;5.82;2.17;;;9.40;82.10;;;;;;5109992;28;20028;-64
2023/01/14 09:25:08;;;;;;;5.10;1.58;;;9.40;82.10;;;;;;5107527;28;20024;-65
2023/01/14 09:27:33;;;;;;;9.80;2.53;;;9.40;82.10;;;;;;5109195;28;20399;-64
2023/01/14 09:29:59;;;;;;;5.93;1.80;;;9.50;82.20;;;;;;5106312;28;20019;-65
2023/01/14 09:32:25;;;;;;;7.30;2.22;;;9.40;82.20;;;;;;5111651;28;20111;-65
2023/01/14 09:34:52;;;;;;;5.25;1.73;;;9.50;82.30;;;;;;5104462;28;20042;-65
2023/01/14 09:37:20;;;;;;;8.80;1.90;;;9.50;82.40;;;;;;5110663;28;20049;-65
2023/01/14 09:39:47;;;;;;;6.10;1.70;;;9.50;82.50;;;;;;5108135;28;20459;-65
2023/01/14 09:42:40;;;;;;;9.80;2.15;;;9.60;82.40;;;;;;5109901;28;20398;-65
2023/01/14 09:45:14;;;;;;;6.80;1.73;;;9.60;82.40;;;;;;5108242;28;20107;-65
2023/01/14 09:47:40;;;;;;;7.05;1.92;;;9.60;82.50;;;;;;5094023;28;20024;-64
2023/01/14 09:50:15;;;;;;;7.57;1.75;;;9.60;82.50;;;;;;5108485;28;20126;-66
2023/01/14 09:52:56;;;;;;;8.95;2.03;;;9.60;82.60;;;;;;5112574;28;20336;-66
2023/01/14 09:55:51;;;;;;;6.38;2.13;;;9.60;82.60;;;;;;5109089;28;20024;-65
2023/01/14 09:58:37;;;;;;;6.18;2.17;;;9.70;82.70;;;;;;5110721;28;20511;-66
2023/01/14 10:01:15;;;;;;;6.03;1.73;;;9.70;82.70;;;;;;5109202;28;20017;-66
2023/01/14 10:04:05;;;;;;;3.78;1.77;;;9.70;82.80;;;;;;5108434;28;20032;-64
2023/01/14 10:06:32;;;;;;;7.07;1.77;;;9.70;82.80;;;;;;5105737;28;20023;-65
2023/01/14 10:09:10;;;;;;;6.60;1.67;;;9.70;82.80;;;;;;5106100;28;20051;-65
2023/01/14 10:11:40;;;;;;;5.85;1.60;;;9.70;82.80;;;;;;5105517;28;20437;-65
2023/01/14 10:14:22;;;;;;;4.43;1.50;;;9.80;82.90;;;;;;5109587;28;20031;-65
2023/01/14 10:16:54;;;;;;;5.95;1.60;;;9.80;82.90;;;;;;5105348;28;20050;-65
2023/01/14 10:19:29;;;;;;;2.60;1.15;;;9.80;82.90;;;;;;5104826;28;20029;-66
2023/01/14 10:22:07;;;;;;;8.38;1.65;;;9.80;82.90;;;;;;5103795;28;20044;-66
2023/01/14 10:24:33;;;;;;;3.33;1.23;;;9.80;82.90;;;;;;5111108;28;20302;-65
2023/01/14 10:26:59;;;;;;;4.32;1.23;;;9.80;82.90;;;;;;5110211;28;20100;-65
2023/01/14 10:29:26;;;;;;;4.00;1.50;;;9.80;83.00;;;;;;5115368;28;20486;-65
2023/01/14 10:32:00;;;;;;;5.00;1.60;;;9.90;83.20;;;;;;5106350;28;20099;-65
2023/01/14 10:34:28;;;;;;;4.50;1.40;;;9.90;83.20;;;;;;5113194;28;20052;-64
2023/01/14 10:36:54;;;;;;;2.95;1.13;;;9.90;83.20;;;;;;5108951;28;20056;-65
2023/01/14 10:39:20;;;;;;;4.75;2.17;;;9.90;83.30;;;;;;5115939;27;20063;-64
2023/01/14 10:41:49;;;;;;;5.03;1.65;;;9.80;83.20;;;;;;5109263;27;20425;-64
2023/01/14 10:44:28;;;;;;;3.95;1.35;;;9.80;83.40;;;;;;5114072;27;20124;-65
2023/01/14 10:47:12;;;;;;;7.35;1.58;;;9.90;83.50;;;;;;5112951;27;20431;-65
2023/01/14 10:49:52;;;;;;;6.13;1.60;;;9.90;83.50;;;;;;5112091;27;20059;-65
2023/01/14 10:52:21;;;;;;;5.03;1.17;;;9.90;83.50;;;;;;5109273;27;20039;-65
2023/01/14 10:54:59;;;;;;;5.47;1.60;;;9.90;83.50;;;;;;5112957;27;20374;-64
2023/01/14 10:57:27;;;;;;;4.60;1.30;;;9.90;83.50;;;;;;5112388;28;20333;-65
2023/01/14 10:59:56;;;;;;;6.53;1.30;;;10.00;83.70;;;;;;5112244;27;20039;-65
2023/01/14 11:02:39;;;;;;;2.58;1.27;;;10.00;83.70;;;;;;5110555;28;20383;-65
2023/01/14 11:05:27;;;;;;;4.13;1.42;;;10.00;83.80;;;;;;5113731;28;20452;-65
2023/01/14 11:07:55;;;;;;;4.85;1.55;;;10.00;83.80;;;;;;5109020;28;20355;-65
2023/01/14 11:10:23;;;;;;;4.80;1.60;;;10.00;83.80;;;;;;5090024;28;20178;-65
2023/01/14 11:12:51;;;;;;;3.28;1.27;;;10.10;83.90;;;;;;5104141;28;20360;-65
2023/01/14 11:15:38;;;;;;;5.47;1.30;;;10.10;84.50;;;;;;5114603;28;20444;-65
2023/01/14 11:18:19;;;;;;;3.47;1.35;;;10.10;83.90;;;;;;5111917;28;20111;-65
2023/01/14 11:20:54;;;;;;;2.83;1.20;;;10.20;83.90;;;;;;5114736;28;20027;-65
2023/01/14 11:23:32;;;;;;;6.75;1.67;;;10.20;83.90;;;;;;5110288;28;20431;-64
2023/01/14 11:26:03;;;;;;;4.72;1.30;;;10.20;83.90;;;;;;5112973;28;20080;-64
2023/01/14 11:28:29;;;;;;;4.20;1.50;;;10.20;84.00;;;;;;5108267;28;20109;-64
2023/01/14 11:30:56;;;;;;;3.92;1.10;;;10.20;84.00;;;;;;5132219;27;20040;-66
2023/01/14 11:33:25;;;;;;;4.38;1.70;;;10.20;84.10;;;;;;5113725;28;20024;-65
2023/01/14 11:35:54;;;;;;;7.18;1.58;;;10.30;84.20;;;;;;5115600;28;20046;-65
2023/01/14 11:38:22;;;;;;;5.53;1.42;;;10.30;84.20;;;;;;5112354;28;20110;-66
2023/01/14 11:43:56;;;;;;;3.53;0.95;;;10.30;84.40;;;;;;5114509;28;20066;-65
2023/01/14 11:46:22;;;;;;;5.25;1.33;;;10.30;84.40;;;;;;5113698;28;20096;-66
2023/01/14 11:49:17;;;;;;;4.72;1.38;;;10.30;84.40;;;;;;5116567;28;20020;-65
2023/01/14 11:51:55;;;;;;;4.13;1.20;;;10.40;84.50;;;;;;5090250;28;20368;-65
2023/01/14 11:54:21;;;;;;;4.47;1.13;;;10.30;84.60;;;;;;5112118;28;20024;-65
2023/01/14 11:56:47;;;;;;;4.63;1.23;;;10.40;84.70;;;;;;5114856;28;20425;-65
2023/01/14 11:59:31;;;;;;;2.55;1.20;;;10.40;84.90;;;;;;5107017;28;20028;-66
2023/01/14 12:02:15;;;;;;;2.75;1.17;;;10.40;85.00;;;;;;5110093;28;20058;-66
2023/01/14 12:04:44;;;;;;;2.83;1.05;;;10.40;85.00;;;;;;5113358;28;20028;-65
2023/01/14 12:07:21;;;;;;;4.38;1.17;;;10.40;85.00;;;;;;5114279;28;20034;-66
2023/01/14 12:09:57;;;;;;;4.07;1.67;;;10.50;85.10;;;;;;5115533;28;20026;-66
2023/01/14 12:18:37;;;;;;;2.85;1.05;;;10.60;85.10;;;;;;5114762;28;20114;-66
2023/01/14 12:21:04;;;;;;;1.98;0.90;;;10.60;85.00;;;;;;5116043;28;20389;-66
2023/01/14 12:23:38;;;;;;;2.92;1.20;;;10.60;85.10;;;;;;5111945;28;20087;-66
2023/01/14 12:26:15;;;;;;;1.88;0.98;;;10.60;85.10;;;;;;5112892;28;20440;-66
2023/01/14 12:28:43;;;;;;;2.33;1.00;;;10.60;85.10;;;;;;5113847;27;20184;-66
2023/01/14 12:31:33;;;;;;;3.33;1.02;;;10.70;85.20;;;;;;5097644;28;20027;-68
2023/01/14 12:34:22;;;;;;;3.17;1.02;;;10.70;85.20;;;;;;5114195;28;20034;-66
2023/01/14 12:37:20;;;;;;;2.95;1.00;;;10.70;85.20;;;;;;5113149;28;20024;-66
2023/01/14 12:45:46;;;;;;;2.67;0.90;;;10.70;85.30;;;;;;5115494;28;20265;-66
2023/01/14 12:48:18;;;;;;;3.13;0.93;;;10.70;85.40;;;;;;5096406;28;20038;-67
2023/01/14 12:50:46;;;;;;;1.42;0.68;;;10.70;85.40;;;;;;5106112;28;20460;-66
2023/01/14 12:53:20;;;;;;;4.15;1.00;;;10.70;85.40;;;;;;5109730;28;20055;-66
2023/01/14 12:55:47;;;;;;;0.85;0.65;;;10.70;85.50;;;;;;5115376;27;20020;-65
2023/01/14 12:58:20;;;;;;;2.53;0.68;;;10.80;85.50;;;;;;5084343;28;20016;-66
2023/01/14 13:00:55;;;;;;;2.10;0.90;;;10.80;85.50;;;;;;5112364;28;20030;-66
2023/01/14 13:03:35;;;;;;;1.45;0.65;;;10.80;85.50;;;;;;5114243;28;20041;-66
2023/01/14 13:06:14;;;;;;;2.78;0.90;;;10.80;85.50;;;;;;5114297;28;20039;-66
2023/01/14 13:08:41;;;;;;;3.45;0.90;;;10.80;85.50;;;;;;5113447;28;20471;-66
2023/01/14 13:11:41;;;;;;;3.20;1.05;;;10.90;85.50;;;;;;5115355;28;20036;-66
2023/01/14 13:14:21;;;;;;;1.17;0.68;;;10.90;85.50;;;;;;5086822;28;20390;-66
2023/01/14 13:16:47;;;;;;;1.58;0.70;;;10.90;85.50;;;;;;5113991;28;20332;-66
2023/01/14 13:19:52;;;;;;;1.27;0.70;;;10.90;85.50;;;;;;5110079;28;20344;-66
2023/01/14 13:22:39;;;;;;;1.60;0.73;;;10.90;85.60;;;;;;5114829;28;20031;-66
2023/01/14 13:25:05;;;;;;;1.95;1.00;;;10.90;85.70;;;;;;5113917;28;20478;-65
2023/01/14 13:27:41;;;;;;;3.13;0.90;;;10.90;85.70;;;;;;5111901;28;20055;-66
2023/01/14 13:30:19;;;;;;;1.15;0.70;;;10.90;85.90;;;;;;5103133;28;20088;-66
2023/01/14 13:32:52;;;;;;;3.00;1.00;;;10.90;85.90;;;;;;5113950;28;20312;-66
2023/01/14 13:35:21;;;;;;;2.17;0.90;;;10.90;86.00;;;;;;5113653;28;20051;-66
2023/01/14 13:37:49;;;;;;;2.25;1.00;;;10.90;86.00;;;;;;5114293;28;20016;-66
2023/01/14 13:40:21;;;;;;;2.63;1.10;;;10.90;86.10;;;;;;5104154;28;20355;-66
2023/01/14 13:43:04;;;;;;;2.22;1.10;;;11.00;86.20;;;;;;5113359;28;20031;-66
2023/01/14 13:45:35;;;;;;;2.00;1.02;;;11.00;86.20;;;;;;5114535;28;20084;-66
2023/01/14 13:48:38;;;;;;;4.40;1.20;;;11.00;86.20;;;;;;5114378;28;20169;-66
2023/01/14 13:51:42;;;;;;;2.95;1.10;;;11.00;86.30;;;;;;5087999;28;20036;-66
2023/01/14 13:54:10;;;;;;;0.93;0.80;;;11.00;86.30;;;;;;5112024;28;20145;-66